Time;durP1;ratioP1;P1;durP2;ratioP2;P2;SDS_P1;SDS_P2;PMS_P1;PMS_P2;Temp;Humidity;BMP_temperature;BMP_pressure;BME280_temperature;BME280_humidity;BME280_pressure;Samples;Min_cycle;Max_cycle;Signal;HPM_P1;HPM_P2
2023/01/15 00:00:41;;;;;;;5.27;4.27;;;5.30;86.40;;;;;;5026682;28;20211;-69
2023/01/15 00:03:07;;;;;;;4.43;3.80;;;5.30;86.60;;;;;;5025571;28;20179;-69
2023/01/15 00:05:36;;;;;;;6.03;4.53;;;5.30;86.40;;;;;;5024433;28;20176;-69
2023/01/15 00:08:01;;;;;;;7.70;4.80;;;5.40;86.10;;;;;;5024088;28;20215;-69
2023/01/15 00:10:27;;;;;;;7.83;4.77;;;5.30;86.30;;;;;;5024197;28;20219;-69
2023/01/15 00:12:53;;;;;;;4.37;3.90;;;5.40;86.10;;;;;;5024203;28;20174;-69
2023/01/15 00:15:19;;;;;;;7.73;4.40;;;5.40;86.10;;;;;;5016409;28;20259;-69
2023/01/15 00:17:44;;;;;;;8.43;4.87;;;5.30;86.30;;;;;;5028503;28;20188;-69
2023/01/15 00:20:11;;;;;;;6.93;4.87;;;5.30;86.30;;;;;;5028486;28;20180;-69
2023/01/15 00:22:36;;;;;;;8.30;4.37;;;5.20;86.30;;;;;;5028494;28;20187;-69
2023/01/15 00:27:47;;;;;;;6.33;3.83;;;5.20;86.50;;;;;;5033593;28;20246;-69
2023/01/15 00:30:14;;;;;;;6.27;3.97;;;5.20;86.50;;;;;;5028560;28;20209;-69
2023/01/15 00:32:42;;;;;;;4.23;3.83;;;5.20;86.30;;;;;;5028354;28;20280;-69
2023/01/15 00:35:21;;;;;;;5.27;4.00;;;5.20;86.30;;;;;;5028390;28;20214;-69
2023/01/15 00:37:47;;;;;;;7.47;4.30;;;5.20;86.30;;;;;;5028253;28;20259;-70
2023/01/15 00:40:15;;;;;;;6.67;3.50;;;5.20;86.30;;;;;;5028010;28;20737;-69
2023/01/15 00:42:41;;;;;;;5.73;4.53;;;5.30;85.90;;;;;;5028112;28;20188;-70
2023/01/15 00:45:09;;;;;;;4.33;3.73;;;5.30;85.80;;;;;;5028234;28;20709;-70
2023/01/15 00:47:39;;;;;;;5.37;3.97;;;5.40;85.70;;;;;;5028332;28;20216;-69
2023/01/15 00:50:09;;;;;;;6.67;3.70;;;5.40;85.60;;;;;;5030802;28;20267;-69
2023/01/15 00:52:35;;;;;;;7.87;3.53;;;5.40;85.70;;;;;;5026606;28;20191;-69
2023/01/15 00:55:00;;;;;;;4.67;3.93;;;5.40;85.60;;;;;;5030159;28;20172;-70
2023/01/15 00:57:26;;;;;;;6.20;3.57;;;5.30;85.70;;;;;;5029471;28;20553;-69
2023/01/15 00:59:52;;;;;;;4.73;3.37;;;5.30;85.70;;;;;;5034459;28;20188;-70
2023/01/15 01:02:18;;;;;;;5.93;4.20;;;5.20;85.90;;;;;;5027784;28;20275;-69
2023/01/15 01:04:44;;;;;;;4.23;3.47;;;5.20;86.00;;;;;;5028833;28;20188;-70
2023/01/15 01:07:09;;;;;;;5.33;4.37;;;5.30;85.90;;;;;;5034017;28;20232;-70
2023/01/15 01:09:35;;;;;;;4.83;3.80;;;5.30;85.80;;;;;;5027118;28;20188;-69
2023/01/15 01:12:01;;;;;;;11.03;3.80;;;5.30;85.90;;;;;;5029804;28;20191;-70
2023/01/15 01:14:27;;;;;;;5.40;3.30;;;5.40;85.70;;;;;;5034677;28;20184;-70
2023/01/15 01:16:52;;;;;;;5.37;3.43;;;5.30;85.50;;;;;;5028151;28;20176;-69
2023/01/15 01:19:21;;;;;;;3.70;3.10;;;5.30;85.40;;;;;;5030885;28;20565;-69
2023/01/15 01:21:48;;;;;;;6.57;4.30;;;5.40;85.40;;;;;;5027776;28;20188;-70
2023/01/15 01:24:18;;;;;;;5.80;3.43;;;5.40;85.30;;;;;;5031072;28;20179;-70
2023/01/15 01:26:44;;;;;;;3.87;3.27;;;5.40;85.10;;;;;;5037617;28;20258;-69
2023/01/15 01:29:23;;;;;;;5.93;3.77;;;5.50;85.00;;;;;;5037320;28;20238;-70
2023/01/15 01:31:50;;;;;;;3.97;3.03;;;5.50;84.90;;;;;;5027613;28;20267;-71
2023/01/15 01:34:15;;;;;;;6.30;4.13;;;5.50;84.90;;;;;;5049890;28;20266;-69
2023/01/15 01:36:42;;;;;;;7.17;4.23;;;5.50;84.90;;;;;;5032161;28;20196;-71
2023/01/15 01:39:15;;;;;;;7.57;3.97;;;5.50;84.80;;;;;;5028754;28;20671;-70
2023/01/15 01:41:41;;;;;;;6.43;3.77;;;5.60;84.80;;;;;;5021512;28;20255;-70
2023/01/15 01:44:33;;;;;;;5.57;4.10;;;5.60;84.60;;;;;;5044344;28;20196;-70
2023/01/15 01:47:01;;;;;;;6.17;4.17;;;5.60;84.30;;;;;;5060639;28;20215;-70
2023/01/15 01:49:27;;;;;;;5.30;3.90;;;5.60;84.40;;;;;;5026147;28;20238;-70
2023/01/15 01:52:05;;;;;;;8.83;3.70;;;5.70;84.50;;;;;;5034866;28;20179;-71
2023/01/15 01:54:34;;;;;;;6.90;3.97;;;5.60;84.40;;;;;;5033203;28;20190;-70
2023/01/15 01:57:00;;;;;;;5.37;4.03;;;5.60;84.30;;;;;;5031444;28;20204;-71
2023/01/15 01:59:26;;;;;;;10.60;4.23;;;5.60;84.40;;;;;;5028251;28;20274;-70
2023/01/15 02:01:52;;;;;;;5.30;4.03;;;5.60;84.60;;;;;;5026504;28;20176;-71
2023/01/15 02:04:20;;;;;;;5.07;4.57;;;5.60;84.60;;;;;;5026799;28;20242;-71
2023/01/15 02:06:46;;;;;;;5.57;4.77;;;5.60;84.70;;;;;;5029567;28;20295;-69
2023/01/15 02:09:12;;;;;;;7.33;4.90;;;5.60;84.80;;;;;;5031774;28;20262;-70
2023/01/15 02:11:37;;;;;;;9.63;5.47;;;5.50;85.00;;;;;;5030703;28;21132;-70
2023/01/15 02:14:22;;;;;;;6.53;4.37;;;5.50;85.30;;;;;;5022401;28;20189;-70
2023/01/15 02:16:56;;;;;;;4.87;3.77;;;5.50;85.30;;;;;;5026553;28;20325;-71
2023/01/15 02:19:40;;;;;;;8.53;4.80;;;5.50;85.20;;;;;;5028408;28;20195;-70
2023/01/15 02:22:22;;;;;;;6.60;4.87;;;5.50;85.30;;;;;;5021686;28;20186;-71
2023/01/15 02:25:09;;;;;;;8.37;4.83;;;5.50;85.30;;;;;;5024721;28;20184;-70
2023/01/15 02:27:40;;;;;;;4.90;4.27;;;5.50;85.50;;;;;;5026635;28;20216;-70
2023/01/15 02:30:05;;;;;;;9.60;4.93;;;5.50;85.70;;;;;;5052537;28;20188;-70
2023/01/15 02:32:49;;;;;;;7.90;4.93;;;5.40;85.90;;;;;;5031011;28;21021;-70
2023/01/15 02:35:24;;;;;;;5.10;4.43;;;5.40;85.80;;;;;;5025835;28;20648;-69
2023/01/15 02:37:58;;;;;;;6.13;5.07;;;5.40;86.00;;;;;;5028773;28;20192;-70
2023/01/15 02:40:25;;;;;;;6.63;4.93;;;5.40;85.90;;;;;;5024486;28;20773;-69
2023/01/15 02:42:52;;;;;;;7.93;5.50;;;5.30;86.30;;;;;;5038556;28;20185;-69
2023/01/15 02:45:31;;;;;;;8.63;5.87;;;5.30;86.10;;;;;;5024809;28;20198;-69
2023/01/15 02:48:26;;;;;;;10.50;6.10;;;5.40;85.90;;;;;;5026108;28;20230;-69
2023/01/15 02:51:09;;;;;;;7.67;4.87;;;5.40;86.00;;;;;;5025413;28;20230;-69
2023/01/15 02:53:38;;;;;;;6.90;4.83;;;5.40;85.80;;;;;;5031962;28;20187;-70
2023/01/15 02:56:10;;;;;;;10.77;5.50;;;5.40;85.90;;;;;;5024961;28;20189;-69
2023/01/15 02:58:39;;;;;;;11.77;5.57;;;5.40;85.80;;;;;;5026052;28;20216;-69
2023/01/15 03:01:11;;;;;;;13.17;5.50;;;5.40;85.80;;;;;;5034709;28;20267;-69
2023/01/15 03:03:44;;;;;;;11.57;5.97;;;5.40;85.70;;;;;;5028288;28;20596;-69
2023/01/15 03:06:41;;;;;;;10.10;4.83;;;5.40;85.60;;;;;;5029943;28;20686;-69
2023/01/15 03:09:08;;;;;;;8.13;4.77;;;5.40;85.50;;;;;;5035185;28;20200;-70
2023/01/15 03:11:43;;;;;;;7.13;4.83;;;5.50;85.50;;;;;;5035755;28;20196;-70
2023/01/15 03:14:27;;;;;;;7.37;4.37;;;5.50;85.40;;;;;;5041828;28;20203;-70
2023/01/15 03:16:57;;;;;;;5.90;4.03;;;5.50;85.30;;;;;;5033042;28;21212;-70
2023/01/15 03:19:47;;;;;;;10.63;5.23;;;5.50;85.30;;;;;;5040404;28;20191;-70
2023/01/15 03:22:12;;;;;;;5.57;4.57;;;5.60;85.10;;;;;;5042046;28;20269;-70
2023/01/15 03:24:43;;;;;;;6.43;5.00;;;5.60;85.10;;;;;;5041685;28;20238;-70
2023/01/15 03:27:09;;;;;;;8.90;4.70;;;5.60;85.10;;;;;;5043094;28;20224;-69
2023/01/15 03:29:42;;;;;;;8.47;5.20;;;5.70;85.00;;;;;;5035989;28;20635;-70
2023/01/15 03:32:08;;;;;;;6.53;4.27;;;5.70;84.90;;;;;;5037083;28;20234;-70
2023/01/15 03:35:02;;;;;;;6.57;4.57;;;5.70;84.90;;;;;;5042816;28;20756;-69
2023/01/15 03:37:30;;;;;;;4.57;3.77;;;5.70;84.70;;;;;;5035292;28;20230;-69
2023/01/15 03:39:57;;;;;;;5.10;3.63;;;5.80;84.90;;;;;;5042178;28;20225;-70
2023/01/15 03:42:28;;;;;;;4.13;3.73;;;5.80;84.80;;;;;;5041590;28;20668;-69
2023/01/15 03:44:54;;;;;;;4.90;3.83;;;5.80;84.70;;;;;;5033260;28;20244;-69
2023/01/15 03:47:25;;;;;;;6.87;4.87;;;5.80;84.60;;;;;;5023815;28;20208;-69
2023/01/15 03:50:00;;;;;;;7.07;4.13;;;5.80;84.40;;;;;;5024223;28;20192;-70
2023/01/15 03:52:36;;;;;;;6.23;3.63;;;5.80;84.50;;;;;;5026483;28;20564;-69
2023/01/15 03:55:14;;;;;;;3.10;2.83;;;5.80;84.50;;;;;;5035239;28;20190;-69
2023/01/15 03:57:48;;;;;;;3.70;3.40;;;5.80;84.30;;;;;;5024860;28;20346;-70
2023/01/15 04:00:32;;;;;;;4.50;3.37;;;5.90;84.40;;;;;;5029713;28;20183;-69
2023/01/15 04:03:02;;;;;;;6.37;2.87;;;5.90;84.20;;;;;;5024556;28;20176;-69
2023/01/15 04:05:29;;;;;;;2.57;2.37;;;5.90;84.20;;;;;;5023565;28;20287;-69
2023/01/15 04:07:57;;;;;;;3.17;2.57;;;5.90;84.10;;;;;;5024783;28;20204;-69
2023/01/15 04:10:23;;;;;;;5.80;3.40;;;5.90;84.10;;;;;;5024328;28;20188;-69
2023/01/15 04:12:48;;;;;;;3.87;3.17;;;5.90;84.10;;;;;;5033911;28;20190;-69
2023/01/15 04:15:14;;;;;;;3.03;2.67;;;5.90;84.00;;;;;;5024398;28;20775;-70
2023/01/15 04:17:40;;;;;;;5.57;4.37;;;5.90;84.00;;;;;;5024430;28;20195;-69
2023/01/15 04:20:06;;;;;;;3.83;3.13;;;5.90;83.90;;;;;;5032095;28;20184;-69
2023/01/15 04:22:32;;;;;;;2.77;2.53;;;5.90;83.90;;;;;;5025461;28;20242;-69
2023/01/15 04:24:58;;;;;;;3.10;2.90;;;5.90;83.80;;;;;;5036362;28;20192;-70
2023/01/15 04:27:25;;;;;;;5.87;3.33;;;5.90;83.80;;;;;;5024243;28;20203;-70
2023/01/15 04:29:51;;;;;;;4.10;2.80;;;5.90;83.70;;;;;;5023433;28;20595;-70
2023/01/15 04:32:17;;;;;;;3.57;3.10;;;6.00;83.50;;;;;;5027066;28;20180;-70
2023/01/15 04:34:42;;;;;;;2.93;2.53;;;6.00;83.40;;;;;;5024184;28;20180;-70
2023/01/15 04:37:08;;;;;;;5.57;2.97;;;6.00;83.30;;;;;;5029399;28;20187;-69
2023/01/15 04:39:34;;;;;;;5.33;2.93;;;6.00;83.10;;;;;;5025021;28;20234;-69
2023/01/15 04:44:43;;;;;;;3.00;2.50;;;6.00;83.10;;;;;;5026847;28;20215;-69
2023/01/15 04:47:09;;;;;;;3.17;2.57;;;5.90;83.00;;;;;;5026557;28;20208;-69
2023/01/15 04:49:35;;;;;;;2.63;2.43;;;6.00;82.70;;;;;;5035243;28;20181;-69
2023/01/15 04:52:01;;;;;;;3.30;3.00;;;5.90;82.50;;;;;;5023307;28;20180;-69
2023/01/15 04:54:26;;;;;;;4.93;2.70;;;5.90;82.40;;;;;;5031562;28;20176;-70
2023/01/15 04:56:53;;;;;;;4.10;2.80;;;5.90;82.40;;;;;;5039571;28;20188;-70
2023/01/15 04:59:21;;;;;;;2.17;2.07;;;5.80;82.30;;;;;;5029949;28;20183;-69
2023/01/15 05:01:48;;;;;;;2.33;2.23;;;5.80;82.10;;;;;;5029826;28;20187;-68
2023/01/15 05:04:14;;;;;;;3.53;2.63;;;5.80;82.00;;;;;;5033144;28;20215;-68
2023/01/15 05:06:39;;;;;;;3.93;3.23;;;5.80;81.80;;;;;;5031168;28;20216;-67
2023/01/15 05:09:05;;;;;;;5.03;2.80;;;5.80;81.90;;;;;;5028067;28;20180;-72
2023/01/15 05:11:35;;;;;;;3.07;2.60;;;5.70;81.90;;;;;;5029799;28;20731;-70
2023/01/15 05:14:01;;;;;;;6.37;2.80;;;5.70;81.90;;;;;;5031980;28;20184;-70
2023/01/15 05:16:28;;;;;;;5.80;3.60;;;5.60;82.00;;;;;;5031405;28;20680;-70
2023/01/15 05:19:01;;;;;;;3.73;2.43;;;5.50;82.20;;;;;;5034157;28;20189;-70
2023/01/15 05:21:32;;;;;;;5.27;2.83;;;5.50;82.30;;;;;;5025325;28;20192;-69
2023/01/15 05:24:00;;;;;;;3.17;2.37;;;5.50;82.30;;;;;;5035725;28;20266;-69
2023/01/15 05:26:28;;;;;;;3.40;2.87;;;5.50;82.30;;;;;;5018467;28;20291;-70
2023/01/15 05:28:55;;;;;;;7.40;3.60;;;5.40;82.40;;;;;;5027345;28;20195;-69
2023/01/15 05:31:22;;;;;;;4.37;3.07;;;5.30;82.50;;;;;;5027471;28;20590;-70
2023/01/15 05:33:49;;;;;;;6.87;3.93;;;5.30;82.70;;;;;;5027925;28;20180;-70
2023/01/15 05:36:21;;;;;;;3.77;3.00;;;5.20;82.90;;;;;;5027378;28;20208;-70
2023/01/15 05:38:47;;;;;;;3.80;2.90;;;5.20;83.00;;;;;;5042716;28;20181;-70
2023/01/15 05:44:01;;;;;;;5.23;3.27;;;5.20;83.30;;;;;;5024051;28;20250;-70
2023/01/15 05:46:28;;;;;;;5.23;3.90;;;5.20;83.40;;;;;;5027175;28;20226;-70
2023/01/15 05:48:54;;;;;;;6.43;3.93;;;5.20;83.50;;;;;;5031871;28;20588;-70
2023/01/15 05:51:19;;;;;;;6.57;3.90;;;5.20;83.40;;;;;;5025723;28;20176;-70
2023/01/15 05:53:45;;;;;;;8.80;4.13;;;5.20;83.50;;;;;;5027302;28;20706;-69
2023/01/15 05:56:11;;;;;;;7.33;4.20;;;5.20;83.60;;;;;;5026997;28;20211;-70
2023/01/15 05:58:37;;;;;;;7.07;4.17;;;5.30;83.70;;;;;;5026175;28;20180;-70
2023/01/15 06:01:10;;;;;;;4.83;3.43;;;5.30;83.70;;;;;;5024526;28;20184;-69
2023/01/15 06:03:36;;;;;;;6.37;4.07;;;5.30;83.90;;;;;;5025896;28;20184;-69
2023/01/15 06:06:03;;;;;;;7.30;4.40;;;5.30;83.90;;;;;;5026491;28;20230;-70
2023/01/15 06:08:28;;;;;;;9.37;5.13;;;5.30;83.90;;;;;;5026880;28;20180;-70
2023/01/15 06:10:54;;;;;;;5.80;3.60;;;5.30;84.00;;;;;;5026111;28;20202;-69
2023/01/15 06:13:20;;;;;;;6.03;4.47;;;5.30;84.10;;;;;;5032520;28;20243;-70
2023/01/15 06:15:46;;;;;;;4.33;3.93;;;5.30;84.20;;;;;;5029785;28;20180;-69
2023/01/15 06:18:12;;;;;;;6.03;4.60;;;5.40;84.10;;;;;;5026414;28;20234;-70
2023/01/15 06:20:39;;;;;;;14.93;5.23;;;5.40;84.10;;;;;;5026990;28;20187;-69
2023/01/15 06:23:05;;;;;;;7.87;4.80;;;5.40;84.10;;;;;;5030592;28;20724;-71
2023/01/15 06:25:35;;;;;;;6.43;4.97;;;5.40;84.20;;;;;;5026295;28;20573;-70
2023/01/15 06:28:02;;;;;;;8.40;5.17;;;5.40;84.40;;;;;;5026393;28;20219;-71
2023/01/15 06:30:28;;;;;;;6.43;4.77;;;5.40;84.40;;;;;;5028978;28;20649;-71
2023/01/15 06:32:54;;;;;;;9.77;5.57;;;5.50;84.40;;;;;;5031025;28;20168;-71
2023/01/15 06:35:19;;;;;;;7.13;4.67;;;5.50;84.40;;;;;;5030858;28;20633;-71
2023/01/15 06:37:45;;;;;;;11.10;5.53;;;5.50;84.60;;;;;;5033273;28;20185;-70
2023/01/15 06:40:11;;;;;;;7.33;5.60;;;5.50;84.60;;;;;;5050979;28;20207;-70
2023/01/15 06:48:06;;;;;;;6.17;4.67;;;5.50;84.50;;;;;;5025893;28;20198;-70
2023/01/15 06:50:32;;;;;;;11.30;6.03;;;5.50;84.40;;;;;;5025636;28;20176;-70
2023/01/15 06:52:58;;;;;;;8.67;4.33;;;5.50;84.40;;;;;;5026775;28;20180;-70
2023/01/15 06:55:23;;;;;;;8.00;4.70;;;5.50;84.70;;;;;;5028950;28;20642;-69
2023/01/15 06:57:49;;;;;;;9.90;5.43;;;5.60;84.40;;;;;;5025657;28;20180;-70
2023/01/15 07:00:15;;;;;;;5.70;4.40;;;5.60;84.10;;;;;;5025499;28;20228;-70
2023/01/15 07:02:41;;;;;;;12.77;6.07;;;5.60;84.30;;;;;;5031192;28;21017;-70
2023/01/15 07:05:07;;;;;;;9.13;4.90;;;5.60;84.30;;;;;;5025029;28;20215;-70
2023/01/15 07:07:33;;;;;;;6.03;4.37;;;5.70;84.30;;;;;;5025121;28;20224;-70
2023/01/15 07:09:59;;;;;;;8.43;4.10;;;5.70;84.10;;;;;;5024430;28;20255;-70
2023/01/15 07:12:25;;;;;;;9.37;4.70;;;5.80;83.80;;;;;;5025195;28;20214;-70
2023/01/15 07:14:51;;;;;;;9.70;4.97;;;5.80;83.40;;;;;;5024404;28;20185;-71
2023/01/15 07:17:17;;;;;;;12.30;6.17;;;5.80;83.40;;;;;;5022466;28;20191;-71
2023/01/15 07:19:43;;;;;;;9.57;4.83;;;5.80;83.40;;;;;;5024637;28;20177;-71
2023/01/15 07:22:09;;;;;;;8.33;4.80;;;5.80;83.50;;;;;;5026887;28;20184;-70
2023/01/15 07:24:35;;;;;;;7.43;5.33;;;5.80;83.50;;;;;;5028476;28;20188;-71
2023/01/15 07:27:01;;;;;;;6.53;4.70;;;5.80;83.80;;;;;;5027490;28;20851;-71
2023/01/15 07:29:27;;;;;;;5.90;5.03;;;5.80;83.50;;;;;;5024715;28;20192;-71
2023/01/15 07:31:52;;;;;;;7.10;4.57;;;5.70;83.90;;;;;;5024163;28;20192;-72
2023/01/15 07:34:18;;;;;;;4.53;4.23;;;5.80;84.30;;;;;;5025166;28;20176;-71
2023/01/15 07:36:44;;;;;;;5.30;3.93;;;5.90;84.30;;;;;;5021612;28;20197;-71
2023/01/15 07:39:10;;;;;;;7.37;4.77;;;6.00;84.20;;;;;;5022796;28;20180;-72
2023/01/15 07:50:09;;;;;;;6.40;4.77;;;6.30;83.50;;;;;;5022535;28;20187;-71
2023/01/15 07:52:35;;;;;;;6.27;4.63;;;6.40;82.50;;;;;;5024463;28;20595;-68
2023/01/15 07:55:02;;;;;;;5.30;4.37;;;6.50;82.00;;;;;;5029851;28;20195;-69
2023/01/15 07:57:28;;;;;;;4.67;4.20;;;6.60;81.50;;;;;;5040598;28;20207;-70
2023/01/15 07:59:54;;;;;;;5.13;4.30;;;6.60;81.00;;;;;;5023824;28;20188;-71
2023/01/15 08:02:19;;;;;;;6.83;3.47;;;6.70;81.20;;;;;;5026020;28;20271;-70
2023/01/15 08:04:46;;;;;;;6.07;4.40;;;6.70;81.60;;;;;;5024494;28;20183;-71
2023/01/15 08:07:13;;;;;;;9.35;5.63;;;6.90;82.30;;;;;;5021753;28;20433;-74
2023/01/15 08:09:39;;;;;;;10.88;5.25;;;7.30;82.50;;;;;;5023913;28;20478;-68
2023/01/15 08:17:34;;;;;;;7.07;5.67;;;9.30;80.20;;;;;;5023190;28;21015;-70
2023/01/15 08:20:02;;;;;;;7.73;5.33;;;10.00;75.10;;;;;;5027462;28;20716;-70
2023/01/15 08:22:27;;;;;;;6.30;4.63;;;10.60;77.30;;;;;;5022181;28;20271;-70
2023/01/15 08:24:53;;;;;;;8.38;4.85;;;11.20;74.30;;;;;;5020344;28;20272;-70
2023/01/15 08:27:18;;;;;;;5.35;4.82;;;11.40;72.80;;;;;;5019955;28;20248;-70
2023/01/15 08:29:44;;;;;;;6.82;4.78;;;11.50;72.10;;;;;;5023275;28;20184;-69
2023/01/15 08:32:10;;;;;;;8.83;6.03;;;11.50;71.60;;;;;;5022737;28;21035;-71
2023/01/15 08:34:36;;;;;;;9.82;7.22;;;11.50;72.00;;;;;;5021797;28;20518;-70
2023/01/15 08:37:01;;;;;;;6.05;5.45;;;11.50;72.40;;;;;;5024448;28;20224;-69
2023/01/15 08:39:27;;;;;;;6.03;4.95;;;11.40;71.60;;;;;;5029936;28;21055;-70
2023/01/15 08:41:54;;;;;;;7.65;6.30;;;11.20;71.20;;;;;;5026879;28;20440;-68
2023/01/15 08:44:22;;;;;;;4.95;3.88;;;11.20;72.50;;;;;;5029632;28;20704;-68
2023/01/15 08:46:48;;;;;;;4.25;3.80;;;11.10;71.60;;;;;;5026604;28;20303;-69
2023/01/15 08:49:14;;;;;;;7.45;4.47;;;11.00;71.10;;;;;;5038439;28;20242;-69
2023/01/15 08:51:40;;;;;;;5.05;4.55;;;10.90;71.40;;;;;;5028020;28;20263;-69
2023/01/15 08:54:06;;;;;;;4.65;4.20;;;10.80;71.30;;;;;;5028517;28;20279;-68
2023/01/15 08:56:31;;;;;;;4.40;3.22;;;10.70;71.60;;;;;;5029029;28;20301;-70
2023/01/15 08:58:57;;;;;;;5.47;4.35;;;10.70;71.40;;;;;;5027783;28;20191;-69
2023/01/15 09:01:22;;;;;;;3.88;3.42;;;10.60;71.00;;;;;;5034949;28;20308;-69
2023/01/15 09:03:48;;;;;;;5.68;4.57;;;10.50;71.40;;;;;;5026758;28;20180;-69
2023/01/15 09:06:14;;;;;;;6.72;5.00;;;10.40;70.80;;;;;;5025848;28;20249;-69
2023/01/15 09:08:39;;;;;;;8.35;4.88;;;10.40;71.40;;;;;;5042269;28;20195;-67
2023/01/15 09:11:12;;;;;;;8.65;5.05;;;10.30;71.60;;;;;;5035889;28;20672;-69
2023/01/15 09:13:38;;;;;;;7.70;4.35;;;10.30;71.60;;;;;;5033140;28;20342;-69
2023/01/15 09:16:05;;;;;;;7.22;4.90;;;10.30;71.30;;;;;;5033675;28;20306;-69
2023/01/15 09:18:32;;;;;;;5.25;4.65;;;10.20;70.90;;;;;;5030161;28;20192;-69
2023/01/15 09:20:58;;;;;;;5.40;4.60;;;10.20;70.60;;;;;;5031926;28;20297;-69
2023/01/15 09:23:24;;;;;;;9.70;4.80;;;10.10;70.40;;;;;;5031171;28;20188;-69
2023/01/15 09:25:54;;;;;;;6.22;4.47;;;10.00;70.90;;;;;;5030076;28;20184;-69
2023/01/15 09:28:21;;;;;;;5.60;5.00;;;9.90;71.00;;;;;;5031621;28;20238;-69
2023/01/15 09:30:46;;;;;;;7.07;4.60;;;10.00;71.20;;;;;;5040853;28;20685;-69
2023/01/15 09:33:13;;;;;;;7.35;4.90;;;10.00;72.00;;;;;;5027561;28;20185;-69
2023/01/15 09:35:39;;;;;;;5.28;4.78;;;10.20;72.60;;;;;;5039830;28;20254;-69
2023/01/15 09:38:05;;;;;;;7.22;4.85;;;10.40;71.80;;;;;;5022979;28;20302;-69
2023/01/15 09:40:56;;;;;;;5.30;4.47;;;10.80;71.60;;;;;;5030322;28;20725;-69
2023/01/15 09:43:52;;;;;;;8.32;5.47;;;11.30;71.80;;;;;;5033148;28;20652;-68
2023/01/15 09:46:27;;;;;;;8.75;5.88;;;11.80;70.20;;;;;;5027529;28;20810;-69
2023/01/15 09:49:12;;;;;;;10.43;6.80;;;12.20;69.70;;;;;;5029288;28;20341;-69
2023/01/15 09:52:16;;;;;;;10.10;6.78;;;12.30;67.80;;;;;;5026573;28;20187;-69
2023/01/15 09:54:59;;;;;;;8.95;6.78;;;12.40;68.90;;;;;;5024654;28;20184;-69
2023/01/15 09:57:27;;;;;;;12.45;7.10;;;12.40;67.80;;;;;;5027568;28;20939;-68
2023/01/15 10:00:01;;;;;;;12.55;7.72;;;12.40;67.60;;;;;;5037853;28;20184;-69
2023/01/15 10:02:39;;;;;;;12.07;7.55;;;12.30;67.50;;;;;;5032418;28;20924;-68
2023/01/15 10:05:16;;;;;;;11.60;7.13;;;12.20;68.60;;;;;;5026782;28;20187;-69
2023/01/15 10:08:02;;;;;;;12.48;8.15;;;12.20;68.50;;;;;;5024197;28;20214;-70
2023/01/15 10:10:34;;;;;;;13.85;8.02;;;12.00;67.80;;;;;;5024254;28;20267;-68
2023/01/15 10:13:20;;;;;;;18.20;9.15;;;11.80;68.60;;;;;;5028532;28;20190;-67
2023/01/15 10:15:46;;;;;;;13.15;8.90;;;11.70;69.10;;;;;;5026086;28;20207;-68
2023/01/15 10:18:20;;;;;;;15.32;9.13;;;11.70;68.60;;;;;;5025090;28;20180;-68
2023/01/15 10:21:23;;;;;;;9.38;7.20;;;11.50;69.30;;;;;;5027642;28;20188;-68
2023/01/15 10:24:10;;;;;;;10.73;7.57;;;11.60;69.30;;;;;;5027908;28;20188;-71
2023/01/15 10:26:55;;;;;;;11.55;7.32;;;11.50;69.00;;;;;;5056750;28;20246;-69
2023/01/15 10:29:57;;;;;;;9.70;6.65;;;11.50;69.00;;;;;;5029333;28;20767;-71
2023/01/15 10:32:52;;;;;;;8.20;6.20;;;11.40;68.60;;;;;;5020575;28;20191;-71
2023/01/15 10:36:02;;;;;;;10.20;6.05;;;11.40;69.30;;;;;;5018495;28;20203;-70
2023/01/15 10:38:42;;;;;;;8.48;6.10;;;11.80;70.90;;;;;;5016974;28;20246;-69
2023/01/15 10:41:14;;;;;;;9.40;5.80;;;12.30;69.80;;;;;;5025278;28;21077;-70
2023/01/15 10:44:12;;;;;;;6.63;5.47;;;12.80;69.30;;;;;;5019532;28;20221;-70
2023/01/15 10:46:39;;;;;;;7.40;5.78;;;13.10;67.40;;;;;;4967509;28;20265;-70
2023/01/15 10:49:13;;;;;;;7.68;6.28;;;13.20;66.60;;;;;;4963224;28;20198;-70
2023/01/15 10:51:43;;;;;;;7.55;5.63;;;13.30;67.20;;;;;;4962294;28;20193;-68
2023/01/15 10:54:33;;;;;;;6.30;5.00;;;13.40;67.90;;;;;;4961841;28;20225;-71
2023/01/15 10:57:10;;;;;;;6.22;5.25;;;13.80;65.70;;;;;;4971282;28;20199;-69
2023/01/15 10:59:51;;;;;;;7.20;5.28;;;14.10;65.70;;;;;;4978164;28;20483;-68
2023/01/15 11:02:43;;;;;;;7.90;5.90;;;14.30;65.10;;;;;;4958628;28;20191;-68
2023/01/15 11:05:15;;;;;;;9.45;6.78;;;14.60;64.50;;;;;;4964156;28;20241;-70
2023/01/15 11:07:44;;;;;;;6.68;5.53;;;14.70;64.70;;;;;;4956720;28;20605;-69
2023/01/15 11:10:14;;;;;;;8.43;6.20;;;14.80;64.00;;;;;;4944148;29;20202;-69
2023/01/15 11:21:19;;;;;;;7.45;5.35;;;16.30;62.70;;;;;;4941344;28;20907;-69
2023/01/15 11:23:46;;;;;;;7.13;6.03;;;16.70;61.10;;;;;;4986723;28;20204;-69
2023/01/15 11:26:29;;;;;;;6.35;5.68;;;16.70;60.90;;;;;;5021529;28;20227;-69
2023/01/15 11:28:57;;;;;;;6.68;5.50;;;16.70;61.30;;;;;;5022072;28;20181;-69
2023/01/15 11:31:35;;;;;;;9.07;6.38;;;16.70;60.90;;;;;;5018237;28;20189;-69
2023/01/15 11:34:04;;;;;;;6.68;5.88;;;16.90;61.10;;;;;;5024088;28;20172;-70
2023/01/15 11:36:31;;;;;;;9.23;6.90;;;16.90;60.80;;;;;;5024652;28;20665;-69
2023/01/15 11:38:57;;;;;;;5.90;5.30;;;17.10;60.80;;;;;;5023686;28;20172;-69
2023/01/15 11:52:42;;;;;;;8.93;6.22;;;17.20;57.60;;;;;;5025078;28;20191;-70
2023/01/15 11:55:14;;;;;;;6.43;5.75;;;16.60;59.30;;;;;;5024772;28;20187;-68
2023/01/15 11:57:41;;;;;;;5.63;5.05;;;16.40;59.80;;;;;;5024668;28;20942;-69
2023/01/15 12:00:18;;;;;;;5.80;5.32;;;16.20;59.50;;;;;;5027002;28;20176;-69
2023/01/15 12:02:50;;;;;;;6.18;5.05;;;16.00;60.00;;;;;;5017162;28;20693;-69
2023/01/15 12:05:22;;;;;;;6.28;5.60;;;15.80;60.40;;;;;;5021956;28;20204;-69
2023/01/15 12:07:52;;;;;;;7.05;5.60;;;15.80;61.40;;;;;;5024486;28;20273;-69
2023/01/15 12:13:37;;;;;;;5.38;4.88;;;15.80;60.60;;;;;;5019854;28;20214;-70
2023/01/15 12:16:17;;;;;;;5.95;4.80;;;15.90;61.70;;;;;;5023753;28;20188;-71
2023/01/15 12:18:46;;;;;;;4.90;4.53;;;16.00;62.00;;;;;;5022482;28;20188;-69
2023/01/15 12:21:49;;;;;;;5.88;5.28;;;16.30;62.10;;;;;;5023130;28;20619;-69
2023/01/15 12:24:33;;;;;;;5.00;4.53;;;16.60;61.60;;;;;;5022188;28;20183;-69
2023/01/15 12:27:32;;;;;;;4.47;4.03;;;17.00;60.20;;;;;;5024316;28;20390;-70
2023/01/15 12:30:03;;;;;;;5.10;4.70;;;17.20;60.90;;;;;;5019569;28;20571;-70
2023/01/15 12:32:36;;;;;;;5.38;4.88;;;17.50;59.10;;;;;;5024250;28;20603;-69
2023/01/15 12:35:15;;;;;;;4.65;4.25;;;17.70;58.10;;;;;;5023303;28;20744;-69
2023/01/15 12:37:49;;;;;;;4.20;3.90;;;17.70;59.00;;;;;;5023335;28;20191;-69
2023/01/15 12:40:28;;;;;;;4.35;3.97;;;17.60;58.70;;;;;;5020064;28;20215;-70
2023/01/15 12:45:48;;;;;;;3.35;3.15;;;17.40;58.40;;;;;;5018607;28;20190;-70
2023/01/15 12:48:22;;;;;;;4.22;3.83;;;17.10;59.20;;;;;;5022783;28;20323;-70
2023/01/15 12:50:55;;;;;;;4.05;3.50;;;17.00;57.60;;;;;;5054582;28;20197;-68
2023/01/15 12:53:31;;;;;;;4.00;3.70;;;16.80;59.60;;;;;;5024809;28;20183;-70
2023/01/15 12:56:09;;;;;;;7.15;3.63;;;16.70;60.20;;;;;;5022441;28;20196;-70
2023/01/15 12:58:43;;;;;;;4.25;3.83;;;16.60;59.80;;;;;;5024961;28;20192;-70
2023/01/15 13:01:47;;;;;;;3.92;3.30;;;16.50;59.00;;;;;;5023785;28;20206;-68
2023/01/15 13:04:19;;;;;;;3.70;3.40;;;16.60;60.60;;;;;;5022267;28;20184;-70
2023/01/15 13:06:58;;;;;;;3.85;3.60;;;16.80;59.90;;;;;;5020457;28;20250;-70
2023/01/15 13:09:43;;;;;;;3.47;3.13;;;17.10;59.50;;;;;;5022184;28;20185;-70
2023/01/15 13:12:18;;;;;;;4.60;3.63;;;17.20;59.20;;;;;;5050385;28;20602;-69
2023/01/15 13:14:44;;;;;;;3.65;3.38;;;17.30;57.00;;;;;;5021368;28;20271;-69
2023/01/15 13:17:22;;;;;;;4.32;3.92;;;17.10;58.10;;;;;;5022779;28;20833;-69
2023/01/15 13:20:04;;;;;;;3.63;3.35;;;16.90;58.70;;;;;;5023010;28;20199;-70
2023/01/15 13:22:31;;;;;;;3.92;3.63;;;17.10;59.10;;;;;;5024381;28;20246;-68
2023/01/15 13:25:06;;;;;;;3.40;3.20;;;16.80;58.20;;;;;;5027580;28;20302;-68
2023/01/15 13:27:56;;;;;;;3.75;2.92;;;16.60;59.40;;;;;;5027134;28;20230;-69
2023/01/15 13:30:37;;;;;;;3.78;3.50;;;16.40;59.60;;;;;;5026812;28;20176;-69
2023/01/15 13:33:22;;;;;;;3.97;3.67;;;16.20;59.70;;;;;;5026693;28;20181;-69
2023/01/15 13:35:53;;;;;;;5.13;3.90;;;16.00;60.00;;;;;;5041592;28;20192;-69
2023/01/15 13:38:23;;;;;;;4.40;4.07;;;15.80;59.50;;;;;;5026310;28;20180;-69
2023/01/15 13:40:53;;;;;;;4.40;4.00;;;15.80;59.50;;;;;;5026190;28;20242;-71
2023/01/15 13:43:40;;;;;;;4.43;3.53;;;15.80;59.30;;;;;;5024200;28;20338;-71
2023/01/15 13:46:11;;;;;;;4.10;3.80;;;15.90;59.20;;;;;;5026966;28;20602;-72
2023/01/15 13:48:45;;;;;;;3.22;3.00;;;16.00;60.60;;;;;;5024345;28;20270;-71
2023/01/15 13:51:36;;;;;;;4.80;3.70;;;15.90;59.30;;;;;;5022587;28;20254;-72
2023/01/15 13:54:02;;;;;;;4.25;3.90;;;15.70;59.30;;;;;;5050922;28;20184;-73
2023/01/15 13:56:34;;;;;;;4.00;3.67;;;15.30;59.80;;;;;;5028861;28;20192;-71
2023/01/15 13:59:05;;;;;;;4.03;3.80;;;15.20;60.40;;;;;;5025376;28;20257;-73
2023/01/15 14:01:36;;;;;;;4.40;4.03;;;15.00;61.80;;;;;;5026420;28;20192;-71
2023/01/15 14:04:05;;;;;;;4.65;3.97;;;14.90;61.00;;;;;;5025513;28;20181;-74
2023/01/15 14:06:39;;;;;;;4.30;4.00;;;14.80;61.70;;;;;;5023885;28;20216;-73